createdAt,value
2022-08-29T00:03:09.661Z,1011.983
2022-08-29T00:23:07.387Z,1011.862
2022-08-29T00:43:07.191Z,1011.895
2022-08-29T01:03:08.852Z,1012.016
2022-08-29T01:23:07.743Z,1012.083
2022-08-29T01:43:07.576Z,1012.205
2022-08-29T02:03:08.281Z,1012.242
2022-08-29T02:23:31.778Z,1012.284
2022-08-29T02:43:07.622Z,1012.34
2022-08-29T03:03:08.351Z,1012.272
2022-08-29T03:23:08.676Z,1012.19
2022-08-29T03:43:07.456Z,1012.283
2022-08-29T04:03:08.418Z,1012.358
2022-08-29T04:23:07.296Z,1012.402
2022-08-29T04:43:07.394Z,1012.43
2022-08-29T05:03:08.645Z,1012.478
2022-08-29T05:23:07.547Z,1012.656
2022-08-29T05:43:07.418Z,1012.88
2022-08-29T06:03:08.821Z,1012.94
2022-08-29T06:23:07.705Z,1012.931
2022-08-29T06:43:07.553Z,1012.876
2022-08-29T07:03:08.793Z,1012.925
2022-08-29T07:23:09.445Z,1012.984
2022-08-29T07:43:07.536Z,1012.954
2022-08-29T08:03:08.616Z,1012.926
2022-08-29T08:23:10.125Z,1012.989
2022-08-29T08:43:08.137Z,1013.151
2022-08-29T09:03:09.048Z,1013.253
2022-08-29T09:23:07.981Z,1013.251
2022-08-29T09:43:08.103Z,1013.048
2022-08-29T10:03:09.787Z,1013.125
2022-08-29T10:23:07.644Z,1012.932
2022-08-29T10:43:08.775Z,1012.959
2022-08-29T11:03:08.734Z,1012.783
2022-08-29T11:23:07.617Z,1012.731
2022-08-29T11:43:13.376Z,1012.678
2022-08-29T12:03:29.516Z,1012.33
2022-08-29T12:23:07.862Z,1012.169
2022-08-29T12:43:07.901Z,1012.117
2022-08-29T13:03:16.375Z,1011.846
2022-08-29T13:23:07.207Z,1011.697
2022-08-29T13:43:08.215Z,1011.623
2022-08-29T14:03:09.786Z,1011.481
2022-08-29T14:23:07.918Z,1011.353
2022-08-29T14:43:07.964Z,1011.279
2022-08-29T15:03:09.263Z,1011.126
2022-08-29T15:23:07.142Z,1011.116
2022-08-29T15:43:08.229Z,1010.985
2022-08-29T16:03:08.574Z,1010.855
2022-08-29T16:23:07.893Z,1010.63
2022-08-29T16:43:08.064Z,1010.542
2022-08-29T17:03:08.905Z,1010.544
2022-08-29T17:23:11.153Z,1010.601
2022-08-29T17:43:08.233Z,1010.602
2022-08-29T18:03:09.120Z,1010.671
2022-08-29T18:23:07.909Z,1010.787
2022-08-29T18:43:11.652Z,1010.945
2022-08-29T19:03:08.585Z,1011.116
2022-08-29T19:23:07.376Z,1011.16
2022-08-29T19:43:15.041Z,1011.192
2022-08-29T20:03:09.169Z,1011.238
2022-08-29T20:23:08.073Z,1011.206
2022-08-29T20:43:08.191Z,1011.363
2022-08-29T21:03:09.303Z,1011.371
2022-08-29T21:23:07.147Z,1011.377
2022-08-29T21:43:07.462Z,1011.449
2022-08-29T22:03:08.868Z,1011.409
2022-08-29T22:23:07.685Z,1011.568
2022-08-29T22:43:07.463Z,1011.552
2022-08-29T23:03:08.359Z,1011.604
2022-08-29T23:23:09.588Z,1011.72
2022-08-29T23:43:07.680Z,1011.666
